sensor_id;sensor_type;location;lat;lon;timestamp;pressure;altitude;pressure_sealevel;temperature;humidity
62374;BME280;48409;49.030;1.820;2022-08-19T00:00:34;100795.28;;;22.93;45.30
62374;BME280;48409;49.030;1.820;2022-08-19T00:03:00;100796.41;;;22.90;45.28
62374;BME280;48409;49.030;1.820;2022-08-19T00:05:25;100804.63;;;22.89;45.29
62374;BME280;48409;49.030;1.820;2022-08-19T00:07:51;100804.94;;;22.86;45.26
62374;BME280;48409;49.030;1.820;2022-08-19T00:10:19;100806.09;;;22.83;45.49
62374;BME280;48409;49.030;1.820;2022-08-19T00:12:44;100809.88;;;22.80;45.34
62374;BME280;48409;49.030;1.820;2022-08-19T00:15:12;100803.84;;;22.78;45.47
62374;BME280;48409;49.030;1.820;2022-08-19T00:17:41;100799.59;;;22.76;45.40
62374;BME280;48409;49.030;1.820;2022-08-19T00:20:08;100792.84;;;22.72;45.44
62374;BME280;48409;49.030;1.820;2022-08-19T00:22:36;100796.53;;;22.71;45.42
62374;BME280;48409;49.030;1.820;2022-08-19T00:25:02;100794.28;;;22.66;45.60
62374;BME280;48409;49.030;1.820;2022-08-19T00:27:28;100791.72;;;22.64;45.54
62374;BME280;48409;49.030;1.820;2022-08-19T00:29:53;100801.78;;;22.62;45.50
62374;BME280;48409;49.030;1.820;2022-08-19T00:32:19;100797.56;;;22.60;45.64
62374;BME280;48409;49.030;1.820;2022-08-19T00:34:45;100797.84;;;22.56;45.52
62374;BME280;48409;49.030;1.820;2022-08-19T00:37:11;100799.69;;;22.56;45.78
62374;BME280;48409;49.030;1.820;2022-08-19T00:39:36;100807.28;;;22.51;45.57
62374;BME280;48409;49.030;1.820;2022-08-19T00:42:03;100796.56;;;22.51;45.61
62374;BME280;48409;49.030;1.820;2022-08-19T00:44:29;100807.59;;;22.48;45.69
62374;BME280;48409;49.030;1.820;2022-08-19T00:46:57;100806.88;;;22.46;45.65
62374;BME280;48409;49.030;1.820;2022-08-19T00:49:35;100812.41;;;22.44;45.57
62374;BME280;48409;49.030;1.820;2022-08-19T00:52:09;100811.72;;;22.42;45.59
62374;BME280;48409;49.030;1.820;2022-08-19T00:54:38;100818.22;;;22.39;45.87
62374;BME280;48409;49.030;1.820;2022-08-19T00:57:08;100815.81;;;22.36;45.84
62374;BME280;48409;49.030;1.820;2022-08-19T00:59:36;100804.41;;;22.34;45.94
62374;BME280;48409;49.030;1.820;2022-08-19T01:02:03;100816.09;;;22.33;45.67
62374;BME280;48409;49.030;1.820;2022-08-19T01:04:28;100808.19;;;22.32;46.01
62374;BME280;48409;49.030;1.820;2022-08-19T01:06:55;100820.91;;;22.29;45.90
62374;BME280;48409;49.030;1.820;2022-08-19T01:09:21;100822.59;;;22.30;45.94
62374;BME280;48409;49.030;1.820;2022-08-19T01:11:47;100822.75;;;22.29;46.01
62374;BME280;48409;49.030;1.820;2022-08-19T01:14:13;100822.06;;;22.27;45.96
62374;BME280;48409;49.030;1.820;2022-08-19T01:16:40;100824.75;;;22.27;46.20
62374;BME280;48409;49.030;1.820;2022-08-19T01:19:15;100828.56;;;22.24;46.12
62374;BME280;48409;49.030;1.820;2022-08-19T01:21:52;100831.09;;;22.26;46.11
62374;BME280;48409;49.030;1.820;2022-08-19T01:24:20;100823.19;;;22.24;46.25
62374;BME280;48409;49.030;1.820;2022-08-19T01:26:46;100821.50;;;22.23;46.34
62374;BME280;48409;49.030;1.820;2022-08-19T01:29:12;100823.34;;;22.23;46.32
62374;BME280;48409;49.030;1.820;2022-08-19T01:31:39;100820.66;;;22.23;46.31
62374;BME280;48409;49.030;1.820;2022-08-19T01:34:05;100815.28;;;22.23;46.31
62374;BME280;48409;49.030;1.820;2022-08-19T01:36:40;100815.28;;;22.23;46.27
62374;BME280;48409;49.030;1.820;2022-08-19T01:39:11;100813.59;;;22.22;46.55
62374;BME280;48409;49.030;1.820;2022-08-19T01:41:37;100830.53;;;22.22;46.60
62374;BME280;48409;49.030;1.820;2022-08-19T01:44:04;100831.66;;;22.20;46.54
62374;BME280;48409;49.030;1.820;2022-08-19T01:46:30;100833.38;;;22.21;46.43
62374;BME280;48409;49.030;1.820;2022-08-19T01:48:56;100838.88;;;22.19;46.56
62374;BME280;48409;49.030;1.820;2022-08-19T01:51:22;100836.19;;;22.19;46.67
62374;BME280;48409;49.030;1.820;2022-08-19T01:53:48;100839.03;;;22.17;46.48
62374;BME280;48409;49.030;1.820;2022-08-19T01:56:14;100832.94;;;22.15;46.65
62374;BME280;48409;49.030;1.820;2022-08-19T01:58:45;100835.63;;;22.15;46.62
62374;BME280;48409;49.030;1.820;2022-08-19T02:01:12;100829.56;;;22.13;46.54
62374;BME280;48409;49.030;1.820;2022-08-19T02:03:38;100835.06;;;22.12;46.47
62374;BME280;48409;49.030;1.820;2022-08-19T02:06:04;100832.38;;;22.12;46.56
62374;BME280;48409;49.030;1.820;2022-08-19T02:08:32;100829.84;;;22.10;46.76
62374;BME280;48409;49.030;1.820;2022-08-19T02:10:58;100829.97;;;22.09;46.72
62374;BME280;48409;49.030;1.820;2022-08-19T02:13:25;100827.63;;;22.06;46.78
62374;BME280;48409;49.030;1.820;2022-08-19T02:15:50;100831.13;;;22.06;46.66
62374;BME280;48409;49.030;1.820;2022-08-19T02:18:16;100834.78;;;22.05;46.67
62374;BME280;48409;49.030;1.820;2022-08-19T02:20:42;100832.25;;;22.03;46.80
62374;BME280;48409;49.030;1.820;2022-08-19T02:23:09;100831.44;;;22.03;46.63
62374;BME280;48409;49.030;1.820;2022-08-19T02:25:35;100838.75;;;22.01;46.89
62374;BME280;48409;49.030;1.820;2022-08-19T02:28:01;100837.06;;;22.00;46.88
62374;BME280;48409;49.030;1.820;2022-08-19T02:30:26;100847.78;;;22.00;46.78
62374;BME280;48409;49.030;1.820;2022-08-19T02:32:52;100837.34;;;21.97;46.84
62374;BME280;48409;49.030;1.820;2022-08-19T02:35:18;100841.88;;;21.96;46.89
62374;BME280;48409;49.030;1.820;2022-08-19T02:37:44;100833.97;;;21.95;46.93
62374;BME280;48409;49.030;1.820;2022-08-19T02:40:29;100841.28;;;21.93;47.00
62374;BME280;48409;49.030;1.820;2022-08-19T02:42:55;100839.59;;;21.91;46.99
62374;BME280;48409;49.030;1.820;2022-08-19T02:45:21;100837.91;;;21.90;47.01
62374;BME280;48409;49.030;1.820;2022-08-19T02:47:47;100836.22;;;21.89;47.01
62374;BME280;48409;49.030;1.820;2022-08-19T02:50:12;100837.06;;;21.90;46.93
62374;BME280;48409;49.030;1.820;2022-08-19T02:52:38;100838.19;;;21.87;46.95
62374;BME280;48409;49.030;1.820;2022-08-19T02:55:04;100831.00;;;21.88;46.88
62374;BME280;48409;49.030;1.820;2022-08-19T02:57:31;100830.16;;;21.87;47.24
62374;BME280;48409;49.030;1.820;2022-08-19T02:59:57;100837.34;;;21.87;47.32
62374;BME280;48409;49.030;1.820;2022-08-19T03:02:22;100835.50;;;21.87;47.16
62374;BME280;48409;49.030;1.820;2022-08-19T03:04:47;100839.06;;;21.88;47.20
62374;BME280;48409;49.030;1.820;2022-08-19T03:07:14;100835.38;;;21.89;47.34
62374;BME280;48409;49.030;1.820;2022-08-19T03:09:40;100830.84;;;21.89;47.48
62374;BME280;48409;49.030;1.820;2022-08-19T03:12:08;100822.81;;;21.89;47.54
62374;BME280;48409;49.030;1.820;2022-08-19T03:14:34;100822.81;;;21.89;47.38
62374;BME280;48409;49.030;1.820;2022-08-19T03:16:59;100826.34;;;21.90;47.44
62374;BME280;48409;49.030;1.820;2022-08-19T03:19:25;100818.16;;;21.91;47.46
62374;BME280;48409;49.030;1.820;2022-08-19T03:21:51;100823.53;;;21.91;47.19
62374;BME280;48409;49.030;1.820;2022-08-19T03:24:17;100825.22;;;21.93;47.49
62374;BME280;48409;49.030;1.820;2022-08-19T03:26:47;100826.88;;;21.94;47.44
62374;BME280;48409;49.030;1.820;2022-08-19T03:29:13;100826.88;;;21.94;47.58
62374;BME280;48409;49.030;1.820;2022-08-19T03:31:40;100823.25;;;21.95;47.68
62374;BME280;48409;49.030;1.820;2022-08-19T03:34:08;100831.97;;;21.97;47.73
62374;BME280;48409;49.030;1.820;2022-08-19T03:36:36;100831.97;;;21.97;47.82
62374;BME280;48409;49.030;1.820;2022-08-19T03:39:03;100836.34;;;21.98;47.66
62374;BME280;48409;49.030;1.820;2022-08-19T03:41:31;100831.72;;;22.00;47.66
62374;BME280;48409;49.030;1.820;2022-08-19T03:43:57;100820.97;;;22.00;47.92
62374;BME280;48409;49.030;1.820;2022-08-19T03:46:28;100822.66;;;22.01;48.00
62374;BME280;48409;49.030;1.820;2022-08-19T03:48:57;100816.31;;;22.02;47.91
62374;BME280;48409;49.030;1.820;2022-08-19T03:51:31;100820.69;;;22.03;47.86
62374;BME280;48409;49.030;1.820;2022-08-19T03:53:59;100820.69;;;22.03;47.97
62374;BME280;48409;49.030;1.820;2022-08-19T03:56:26;100813.34;;;22.05;48.02
62374;BME280;48409;49.030;1.820;2022-08-19T03:58:53;100821.38;;;22.05;47.97
62374;BME280;48409;49.030;1.820;2022-08-19T04:01:21;100813.06;;;22.08;48.10
62374;BME280;48409;49.030;1.820;2022-08-19T04:03:47;100815.75;;;22.08;48.21
62374;BME280;48409;49.030;1.820;2022-08-19T04:06:18;100805.03;;;22.08;48.39
62374;BME280;48409;49.030;1.820;2022-08-19T04:08:45;100818.13;;;22.11;48.01
62374;BME280;48409;49.030;1.820;2022-08-19T04:11:14;100815.63;;;22.10;48.30
62374;BME280;48409;49.030;1.820;2022-08-19T04:13:40;100816.44;;;22.10;48.33
62374;BME280;48409;49.030;1.820;2022-08-19T04:16:07;100818.13;;;22.11;48.23
62374;BME280;48409;49.030;1.820;2022-08-19T04:18:35;100817.16;;;22.12;48.31
62374;BME280;48409;49.030;1.820;2022-08-19T04:21:01;100817.00;;;22.14;48.35
62374;BME280;48409;49.030;1.820;2022-08-19T04:23:26;100817.97;;;22.13;48.24
62374;BME280;48409;49.030;1.820;2022-08-19T04:25:53;100811.63;;;22.14;48.48
62374;BME280;48409;49.030;1.820;2022-08-19T04:28:19;100817.00;;;22.14;48.31
62374;BME280;48409;49.030;1.820;2022-08-19T04:30:49;100815.88;;;22.16;48.28
62374;BME280;48409;49.030;1.820;2022-08-19T04:33:18;100810.50;;;22.16;48.33
62374;BME280;48409;49.030;1.820;2022-08-19T04:35:47;100813.03;;;22.18;48.47
62374;BME280;48409;49.030;1.820;2022-08-19T04:38:14;100818.38;;;22.18;48.41
62374;BME280;48409;49.030;1.820;2022-08-19T04:40:45;100811.91;;;22.21;48.41
62374;BME280;48409;49.030;1.820;2022-08-19T04:43:30;100806.56;;;22.21;48.52
62374;BME280;48409;49.030;1.820;2022-08-19T04:45:56;100812.75;;;22.21;48.58
62374;BME280;48409;49.030;1.820;2022-08-19T04:48:22;100818.13;;;22.21;48.60
62374;BME280;48409;49.030;1.820;2022-08-19T04:51:00;100823.34;;;22.23;48.52
62374;BME280;48409;49.030;1.820;2022-08-19T04:53:28;100831.38;;;22.23;48.63
62374;BME280;48409;49.030;1.820;2022-08-19T04:55:55;100834.06;;;22.23;48.72
62374;BME280;48409;49.030;1.820;2022-08-19T04:58:22;100839.97;;;22.26;48.67
62374;BME280;48409;49.030;1.820;2022-08-19T05:00:47;100841.84;;;22.26;48.76
62374;BME280;48409;49.030;1.820;2022-08-19T05:03:12;100845.22;;;22.28;49.04
62374;BME280;48409;49.030;1.820;2022-08-19T05:05:40;100845.22;;;22.28;48.75
62374;BME280;48409;49.030;1.820;2022-08-19T05:08:06;100839.84;;;22.28;48.79
62374;BME280;48409;49.030;1.820;2022-08-19T05:10:35;100843.25;;;22.30;48.73
62374;BME280;48409;49.030;1.820;2022-08-19T05:13:01;100852.13;;;22.30;48.89
62374;BME280;48409;49.030;1.820;2022-08-19T05:15:26;100849.28;;;22.32;48.83
62374;BME280;48409;49.030;1.820;2022-08-19T05:17:51;100850.16;;;22.33;49.01
62374;BME280;48409;49.030;1.820;2022-08-19T05:20:38;100853.66;;;22.33;48.80
62374;BME280;48409;49.030;1.820;2022-08-19T05:23:22;100859.59;;;22.37;48.96
62374;BME280;48409;49.030;1.820;2022-08-19T05:25:47;100857.88;;;22.36;48.86
62374;BME280;48409;49.030;1.820;2022-08-19T05:28:13;100855.94;;;22.38;49.01
62374;BME280;48409;49.030;1.820;2022-08-19T05:30:38;100862.13;;;22.38;49.07
62374;BME280;48409;49.030;1.820;2022-08-19T05:33:05;100863.84;;;22.39;48.98
62374;BME280;48409;49.030;1.820;2022-08-19T05:35:31;100862.84;;;22.40;48.85
62374;BME280;48409;49.030;1.820;2022-08-19T05:37:57;100856.47;;;22.41;49.06
62374;BME280;48409;49.030;1.820;2022-08-19T05:40:22;100854.50;;;22.43;49.03
62374;BME280;48409;49.030;1.820;2022-08-19T05:42:47;100852.50;;;22.46;49.17
62374;BME280;48409;49.030;1.820;2022-08-19T05:45:14;100854.19;;;22.47;49.34
62374;BME280;48409;49.030;1.820;2022-08-19T05:47:40;100848.81;;;22.47;49.13
62374;BME280;48409;49.030;1.820;2022-08-19T05:50:05;100844.19;;;22.49;49.17
62374;BME280;48409;49.030;1.820;2022-08-19T05:52:31;100845.88;;;22.50;49.25
62374;BME280;48409;49.030;1.820;2022-08-19T05:54:56;100847.41;;;22.52;49.25
62374;BME280;48409;49.030;1.820;2022-08-19T05:57:23;100840.22;;;22.53;49.37
62374;BME280;48409;49.030;1.820;2022-08-19T05:59:49;100842.63;;;22.56;49.51
62374;BME280;48409;49.030;1.820;2022-08-19T06:02:16;100848.84;;;22.56;49.52
62374;BME280;48409;49.030;1.820;2022-08-19T06:04:41;100841.66;;;22.57;49.42
62374;BME280;48409;49.030;1.820;2022-08-19T06:07:10;100842.34;;;22.59;49.57
62374;BME280;48409;49.030;1.820;2022-08-19T06:09:35;100842.19;;;22.61;49.47
62374;BME280;48409;49.030;1.820;2022-08-19T06:12:02;100843.03;;;22.61;49.60
62374;BME280;48409;49.030;1.820;2022-08-19T06:14:31;100847.13;;;22.65;49.55
62374;BME280;48409;49.030;1.820;2022-08-19T06:16:57;100840.75;;;22.66;49.51
62374;BME280;48409;49.030;1.820;2022-08-19T06:19:25;100841.44;;;22.68;49.45
62374;BME280;48409;49.030;1.820;2022-08-19T06:21:51;100839.47;;;22.71;49.70
62374;BME280;48409;49.030;1.820;2022-08-19T06:24:22;100842.03;;;22.72;49.62
62374;BME280;48409;49.030;1.820;2022-08-19T06:26:53;100838.19;;;22.75;49.63
62374;BME280;48409;49.030;1.820;2022-08-19T06:29:21;100845.94;;;22.78;49.61
62374;BME280;48409;49.030;1.820;2022-08-19T06:31:49;100845.78;;;22.79;49.66
62374;BME280;48409;49.030;1.820;2022-08-19T06:34:15;100845.66;;;22.81;49.64
62374;BME280;48409;49.030;1.820;2022-08-19T06:36:44;100848.03;;;22.84;49.78
62374;BME280;48409;49.030;1.820;2022-08-19T06:39:19;100851.41;;;22.86;50.13
62374;BME280;48409;49.030;1.820;2022-08-19T06:41:48;100844.06;;;22.88;49.88
62374;BME280;48409;49.030;1.820;2022-08-19T06:44:14;100840.25;;;22.91;49.97
62374;BME280;48409;49.030;1.820;2022-08-19T06:46:41;100855.22;;;22.93;50.11
62374;BME280;48409;49.030;1.820;2022-08-19T06:49:07;100855.75;;;22.97;50.13
62374;BME280;48409;49.030;1.820;2022-08-19T06:51:35;100858.28;;;22.99;50.04
62374;BME280;48409;49.030;1.820;2022-08-19T06:54:02;100855.47;;;23.00;50.10
62374;BME280;48409;49.030;1.820;2022-08-19T06:56:30;100857.69;;;23.05;50.17
62374;BME280;48409;49.030;1.820;2022-08-19T06:59:05;100862.75;;;23.08;50.08
62374;BME280;48409;49.030;1.820;2022-08-19T07:01:33;100865.16;;;23.11;49.77
62374;BME280;48409;49.030;1.820;2022-08-19T07:03:59;100869.53;;;23.12;49.89
62374;BME280;48409;49.030;1.820;2022-08-19T07:06:27;100866.69;;;23.14;50.23
62374;BME280;48409;49.030;1.820;2022-08-19T07:08:52;100863.88;;;23.15;50.06
62374;BME280;48409;49.030;1.820;2022-08-19T07:11:18;100868.94;;;23.18;50.10
62374;BME280;48409;49.030;1.820;2022-08-19T07:13:45;100872.31;;;23.20;50.17
62374;BME280;48409;49.030;1.820;2022-08-19T07:16:16;100873.84;;;23.23;50.37
62374;BME280;48409;49.030;1.820;2022-08-19T07:18:46;100869.19;;;23.25;50.48
62374;BME280;48409;49.030;1.820;2022-08-19T07:21:23;100876.78;;;23.30;50.13
62374;BME280;48409;49.030;1.820;2022-08-19T07:23:50;100871.28;;;23.31;50.36
62374;BME280;48409;49.030;1.820;2022-08-19T07:26:24;100870.00;;;23.36;50.29
62374;BME280;48409;49.030;1.820;2022-08-19T07:28:50;100863.47;;;23.38;50.45
62374;BME280;48409;49.030;1.820;2022-08-19T07:31:18;100868.56;;;23.41;50.49
62374;BME280;48409;49.030;1.820;2022-08-19T07:33:45;100877.00;;;23.46;50.57
62374;BME280;48409;49.030;1.820;2022-08-19T07:36:14;100869.47;;;23.50;50.82
62374;BME280;48409;49.030;1.820;2022-08-19T07:38:42;100877.09;;;23.55;50.62
62374;BME280;48409;49.030;1.820;2022-08-19T07:41:14;100873.13;;;23.59;50.58
62374;BME280;48409;49.030;1.820;2022-08-19T07:43:40;100873.78;;;23.61;50.76
62374;BME280;48409;49.030;1.820;2022-08-19T07:46:06;100877.19;;;23.63;50.50
62374;BME280;48409;49.030;1.820;2022-08-19T07:48:32;100871.50;;;23.66;50.48
62374;BME280;48409;49.030;1.820;2022-08-19T07:51:02;100873.88;;;23.69;50.52
62374;BME280;48409;49.030;1.820;2022-08-19T07:53:29;100870.03;;;23.72;50.53
62374;BME280;48409;49.030;1.820;2022-08-19T07:55:55;100868.88;;;23.75;50.43
62374;BME280;48409;49.030;1.820;2022-08-19T07:58:24;100867.72;;;23.77;50.51
62374;BME280;48409;49.030;1.820;2022-08-19T08:00:50;100866.56;;;23.80;50.81
62374;BME280;48409;49.030;1.820;2022-08-19T08:03:17;100875.34;;;23.82;50.66
62374;BME280;48409;49.030;1.820;2022-08-19T08:05:44;100878.72;;;23.84;50.56
62374;BME280;48409;49.030;1.820;2022-08-19T08:08:29;100878.41;;;23.87;50.63
62374;BME280;48409;49.030;1.820;2022-08-19T08:11:00;100876.41;;;23.89;50.45
62374;BME280;48409;49.030;1.820;2022-08-19T08:13:26;100874.41;;;23.91;50.48
62374;BME280;48409;49.030;1.820;2022-08-19T08:15:52;100879.50;;;23.94;50.86
62374;BME280;48409;49.030;1.820;2022-08-19T08:18:17;100883.72;;;23.97;50.69
62374;BME280;48409;49.030;1.820;2022-08-19T08:20:43;100883.25;;;24.02;50.55
62374;BME280;48409;49.030;1.820;2022-08-19T08:23:09;100870.50;;;24.04;50.77
62374;BME280;48409;49.030;1.820;2022-08-19T08:25:57;100887.00;;;24.09;50.83
62374;BME280;48409;49.030;1.820;2022-08-19T08:28:23;100882.19;;;24.12;50.76
62374;BME280;48409;49.030;1.820;2022-08-19T08:30:49;100885.44;;;24.16;50.83
62374;BME280;48409;49.030;1.820;2022-08-19T08:33:23;100891.19;;;24.21;50.65
62374;BME280;48409;49.030;1.820;2022-08-19T08:35:48;100894.41;;;24.25;50.80
62374;BME280;48409;49.030;1.820;2022-08-19T08:38:14;100888.56;;;24.30;50.84
62374;BME280;48409;49.030;1.820;2022-08-19T08:40:44;100894.47;;;24.33;50.86
62374;BME280;48409;49.030;1.820;2022-08-19T08:43:29;100895.84;;;24.37;50.62
62374;BME280;48409;49.030;1.820;2022-08-19T08:46:12;100892.66;;;24.42;50.61
62374;BME280;48409;49.030;1.820;2022-08-19T08:48:51;100894.88;;;24.47;50.66
62374;BME280;48409;49.030;1.820;2022-08-19T08:51:24;100893.72;;;24.49;50.75
62374;BME280;48409;49.030;1.820;2022-08-19T08:53:52;100888.88;;;24.53;50.89
62374;BME280;48409;49.030;1.820;2022-08-19T08:56:18;100889.41;;;24.57;50.85
62374;BME280;48409;49.030;1.820;2022-08-19T09:01:48;100889.28;;;24.67;50.76
62374;BME280;48409;49.030;1.820;2022-08-19T09:04:13;100889.81;;;24.70;50.83
62374;BME280;48409;49.030;1.820;2022-08-19T09:09:39;100886.84;;;24.82;50.74
62374;BME280;48409;49.030;1.820;2022-08-19T09:14:57;100883.91;;;24.93;50.67
62374;BME280;48409;49.030;1.820;2022-08-19T09:17:26;100888.66;;;24.99;51.11
62374;BME280;48409;49.030;1.820;2022-08-19T09:20:02;100888.69;;;25.08;51.09
62374;BME280;48409;49.030;1.820;2022-08-19T09:22:32;100883.31;;;25.16;51.15
62374;BME280;48409;49.030;1.820;2022-08-19T09:24:57;100886.91;;;25.25;51.32
62374;BME280;48409;49.030;1.820;2022-08-19T09:27:24;100888.47;;;25.36;51.23
62374;BME280;48409;49.030;1.820;2022-08-19T09:29:50;100887.97;;;25.49;51.26
62374;BME280;48409;49.030;1.820;2022-08-19T09:32:16;100893.09;;;25.60;51.33
62374;BME280;48409;49.030;1.820;2022-08-19T09:34:43;100887.38;;;25.72;51.39
62374;BME280;48409;49.030;1.820;2022-08-19T09:37:09;100895.97;;;25.84;51.31
62374;BME280;48409;49.030;1.820;2022-08-19T09:39:34;100899.38;;;25.94;51.24
62374;BME280;48409;49.030;1.820;2022-08-19T09:42:00;100895.69;;;26.03;50.94
62374;BME280;48409;49.030;1.820;2022-08-19T09:44:25;100893.97;;;26.11;50.85
62374;BME280;48409;49.030;1.820;2022-08-19T09:46:51;100900.38;;;26.18;50.70
62374;BME280;48409;49.030;1.820;2022-08-19T09:49:17;100898.19;;;26.22;50.50
62374;BME280;48409;49.030;1.820;2022-08-19T09:51:43;100900.72;;;26.23;50.34
62374;BME280;48409;49.030;1.820;2022-08-19T09:54:08;100903.13;;;26.26;50.12
62374;BME280;48409;49.030;1.820;2022-08-19T09:56:34;100902.09;;;26.27;49.98
62374;BME280;48409;49.030;1.820;2022-08-19T09:59:00;100898.38;;;26.28;49.83
62374;BME280;48409;49.030;1.820;2022-08-19T10:01:29;100900.09;;;26.29;49.76
62374;BME280;48409;49.030;1.820;2022-08-19T10:03:57;100895.69;;;26.28;49.85
62374;BME280;48409;49.030;1.820;2022-08-19T10:06:24;100892.16;;;26.28;49.48
62374;BME280;48409;49.030;1.820;2022-08-19T10:08:51;100899.41;;;26.27;49.36
62374;BME280;48409;49.030;1.820;2022-08-19T10:11:19;100891.47;;;26.26;49.46
62374;BME280;48409;49.030;1.820;2022-08-19T10:13:45;100902.41;;;26.24;49.19
62374;BME280;48409;49.030;1.820;2022-08-19T10:16:14;100890.28;;;26.20;49.16
62374;BME280;48409;49.030;1.820;2022-08-19T10:18:40;100899.38;;;26.19;49.19
62374;BME280;48409;49.030;1.820;2022-08-19T10:21:18;100894.34;;;26.16;49.30
62374;BME280;48409;49.030;1.820;2022-08-19T10:23:49;100895.31;;;26.15;49.05
62374;BME280;48409;49.030;1.820;2022-08-19T10:26:22;100890.28;;;26.12;49.12
62374;BME280;48409;49.030;1.820;2022-08-19T10:28:48;100900.06;;;26.13;48.99
62374;BME280;48409;49.030;1.820;2022-08-19T10:31:20;100897.53;;;26.11;49.19
62374;BME280;48409;49.030;1.820;2022-08-19T10:33:47;100888.78;;;26.09;49.01
62374;BME280;48409;49.030;1.820;2022-08-19T10:36:21;100896.19;;;26.07;48.97
62374;BME280;48409;49.030;1.820;2022-08-19T10:38:49;100885.53;;;26.05;49.00
62374;BME280;48409;49.030;1.820;2022-08-19T10:41:20;100889.09;;;26.06;49.04
62374;BME280;48409;49.030;1.820;2022-08-19T10:43:47;100892.81;;;26.05;48.94
62374;BME280;48409;49.030;1.820;2022-08-19T10:46:15;100890.28;;;26.03;48.92
62374;BME280;48409;49.030;1.820;2022-08-19T10:48:41;100891.09;;;26.04;48.95
62374;BME280;48409;49.030;1.820;2022-08-19T10:51:08;100883.19;;;26.02;49.00
62374;BME280;48409;49.030;1.820;2022-08-19T10:53:53;100884.03;;;26.03;48.99
62374;BME280;48409;49.030;1.820;2022-08-19T10:56:19;100884.19;;;26.01;48.90
62374;BME280;48409;49.030;1.820;2022-08-19T10:59:04;100892.28;;;26.01;48.76
62374;BME280;48409;49.030;1.820;2022-08-19T11:01:31;100894.16;;;26.01;48.93
62374;BME280;48409;49.030;1.820;2022-08-19T11:04:00;100890.44;;;26.02;48.86
62374;BME280;48409;49.030;1.820;2022-08-19T11:06:25;100887.75;;;26.02;49.26
62374;BME280;48409;49.030;1.820;2022-08-19T11:08:54;100894.00;;;26.02;48.93
62374;BME280;48409;49.030;1.820;2022-08-19T11:11:20;100887.75;;;26.02;48.77
62374;BME280;48409;49.030;1.820;2022-08-19T11:13:47;100888.41;;;26.04;48.90
62374;BME280;48409;49.030;1.820;2022-08-19T11:16:18;100881.16;;;26.04;49.04
62374;BME280;48409;49.030;1.820;2022-08-19T11:18:50;100881.81;;;26.06;48.81
62374;BME280;48409;49.030;1.820;2022-08-19T11:21:32;100889.91;;;26.06;48.89
62374;BME280;48409;49.030;1.820;2022-08-19T11:24:00;100887.22;;;26.06;48.80
62374;BME280;48409;49.030;1.820;2022-08-19T11:26:28;100887.22;;;26.06;48.76
62374;BME280;48409;49.030;1.820;2022-08-19T11:28:54;100877.13;;;26.09;48.80
62374;BME280;48409;49.030;1.820;2022-08-19T11:31:23;100882.53;;;26.09;48.76
62374;BME280;48409;49.030;1.820;2022-08-19T11:33:49;100875.28;;;26.09;48.94
62374;BME280;48409;49.030;1.820;2022-08-19T11:36:19;100883.38;;;26.09;48.73
62374;BME280;48409;49.030;1.820;2022-08-19T11:38:46;100876.09;;;26.10;48.85
62374;BME280;48409;49.030;1.820;2022-08-19T11:41:14;100877.97;;;26.09;48.73
62374;BME280;48409;49.030;1.820;2022-08-19T11:43:40;100875.94;;;26.11;48.71
62374;BME280;48409;49.030;1.820;2022-08-19T11:46:07;100883.00;;;26.12;48.77
62374;BME280;48409;49.030;1.820;2022-08-19T11:48:34;100889.25;;;26.13;48.76
62374;BME280;48409;49.030;1.820;2022-08-19T11:51:03;100885.53;;;26.14;48.68
62374;BME280;48409;49.030;1.820;2022-08-19T11:53:31;100879.28;;;26.13;48.61
62374;BME280;48409;49.030;1.820;2022-08-19T11:55:57;100890.09;;;26.13;48.51
62374;BME280;48409;49.030;1.820;2022-08-19T11:58:22;100891.28;;;26.11;48.56
62374;BME280;48409;49.030;1.820;2022-08-19T12:00:48;100893.81;;;26.12;48.52
62374;BME280;48409;49.030;1.820;2022-08-19T12:03:14;100894.66;;;26.13;48.61
62374;BME280;48409;49.030;1.820;2022-08-19T12:05:40;100892.97;;;26.12;48.36
62374;BME280;48409;49.030;1.820;2022-08-19T12:08:06;100887.59;;;26.12;48.57
62374;BME280;48409;49.030;1.820;2022-08-19T12:10:33;100887.59;;;26.12;48.52
62374;BME280;48409;49.030;1.820;2022-08-19T12:12:58;100888.41;;;26.12;48.43
62374;BME280;48409;49.030;1.820;2022-08-19T12:15:23;100884.69;;;26.13;48.68
62374;BME280;48409;49.030;1.820;2022-08-19T12:17:49;100891.63;;;26.16;48.50
62374;BME280;48409;49.030;1.820;2022-08-19T12:20:15;100890.63;;;26.17;48.70
62374;BME280;48409;49.030;1.820;2022-08-19T12:22:42;100892.28;;;26.18;48.76
62374;BME280;48409;49.030;1.820;2022-08-19T12:25:10;100893.97;;;26.19;48.92
62374;BME280;48409;49.030;1.820;2022-08-19T12:27:36;100890.28;;;26.20;48.65
62374;BME280;48409;49.030;1.820;2022-08-19T12:30:03;100892.78;;;26.22;48.67
62374;BME280;48409;49.030;1.820;2022-08-19T12:32:29;100894.50;;;26.23;48.55
62374;BME280;48409;49.030;1.820;2022-08-19T12:34:54;100896.19;;;26.24;48.66
62374;BME280;48409;49.030;1.820;2022-08-19T12:37:19;100890.63;;;26.25;48.53
62374;BME280;48409;49.030;1.820;2022-08-19T12:39:45;100895.03;;;26.26;48.68
62374;BME280;48409;49.030;1.820;2022-08-19T12:42:12;100881.38;;;26.28;48.69
62374;BME280;48409;49.030;1.820;2022-08-19T12:44:40;100877.63;;;26.29;48.67
62374;BME280;48409;49.030;1.820;2022-08-19T12:47:07;100874.78;;;26.30;48.67
62374;BME280;48409;49.030;1.820;2022-08-19T12:49:34;100879.16;;;26.31;48.58
62374;BME280;48409;49.030;1.820;2022-08-19T12:52:05;100882.53;;;26.33;48.90
62374;BME280;48409;49.030;1.820;2022-08-19T12:54:31;100873.06;;;26.38;48.92
62374;BME280;48409;49.030;1.820;2022-08-19T12:56:57;100877.09;;;26.42;49.01
62374;BME280;48409;49.030;1.820;2022-08-19T12:59:24;100873.91;;;26.46;48.97
62374;BME280;48409;49.030;1.820;2022-08-19T13:01:50;100880.66;;;26.51;48.94